Time;durP1;ratioP1;P1;durP2;ratioP2;P2;SDS_P1;SDS_P2;PMS_P1;PMS_P2;Temp;Humidity;BMP_temperature;BMP_pressure;BME280_temperature;BME280_humidity;BME280_pressure;Samples;Min_cycle;Max_cycle;Signal;HPM_P1;HPM_P2
2022/04/10 00:01:25;;;;;;;1.47;1.10;;;;;;;8.60;64.65;100294.04;1684190;84;27149;-61
2022/04/10 00:03:52;;;;;;;2.30;1.50;;;;;;;8.59;64.44;100306.22;1696255;83;25791;-61
2022/04/10 00:06:18;;;;;;;1.70;1.40;;;;;;;8.37;64.77;100312.10;1696336;84;28326;-61
2022/04/10 00:08:45;;;;;;;2.12;1.60;;;;;;;8.21;65.83;100319.27;1695857;83;25733;-61
2022/04/10 00:11:12;;;;;;;2.45;1.22;;;;;;;7.97;66.30;100315.52;1696159;84;25700;-60
2022/04/10 00:13:39;;;;;;;1.85;1.50;;;;;;;7.80;66.72;100312.44;1696197;83;26156;-61
2022/04/10 00:16:05;;;;;;;1.67;1.50;;;;;;;7.71;67.14;100311.05;1696334;83;25941;-61
2022/04/10 00:18:32;;;;;;;2.87;1.35;;;;;;;7.60;68.14;100309.24;1696233;84;27469;-61
2022/04/10 00:20:59;;;;;;;2.87;1.72;;;;;;;7.61;67.61;100302.44;1695908;84;25752;-61
2022/04/10 00:26:31;;;;;;;1.55;1.45;;;;;;;7.68;67.97;100313.47;1662025;85;27058;-60
2022/04/10 00:28:59;;;;;;;3.00;2.10;;;;;;;7.56;69.19;100319.36;1667581;85;25792;-61
2022/04/10 00:31:26;;;;;;;1.62;1.40;;;;;;;7.47;68.84;100314.30;1662233;85;27475;-61
2022/04/10 00:33:53;;;;;;;2.20;1.92;;;;;;;7.52;69.55;100314.75;1674179;85;25831;-60
2022/04/10 00:36:20;;;;;;;3.67;2.17;;;;;;;7.56;68.84;100318.52;1660305;86;25778;-60
2022/04/10 00:38:47;;;;;;;2.62;1.98;;;;;;;7.50;69.12;100311.34;1688416;85;26926;-61
2022/04/10 00:41:14;;;;;;;2.58;1.70;;;;;;;7.52;69.47;100317.43;1689628;84;25804;-61
2022/04/10 00:44:08;;;;;;;2.42;1.57;;;;;;;7.46;69.12;100311.73;1687021;83;27510;-60
2022/04/10 00:46:36;;;;;;;4.03;1.62;;;;;;;7.34;70.71;100314.47;1681772;84;26049;-61
2022/04/10 00:49:05;;;;;;;5.35;1.82;;;;;;;7.34;70.42;100302.90;1679452;85;25756;-61
2022/04/10 00:51:46;;;;;;;2.42;1.67;;;;;;;7.36;70.34;100302.29;1674691;85;26053;-61
2022/04/10 00:54:20;;;;;;;3.12;1.50;;;;;;;7.42;70.62;100300.44;1680434;84;25491;-60
2022/04/10 00:56:47;;;;;;;2.20;1.37;;;;;;;7.46;70.15;100309.05;1680696;84;27469;-61
2022/04/10 00:59:15;;;;;;;3.22;1.52;;;;;;;7.47;69.75;100312.96;1712192;82;25723;-61
2022/04/10 01:01:47;;;;;;;6.78;1.98;;;;;;;7.48;69.55;100315.14;1720326;83;25779;-61
2022/04/10 01:04:16;;;;;;;4.80;1.40;;;;;;;7.52;69.60;100308.56;1722414;82;26053;-61
2022/04/10 01:06:48;;;;;;;3.47;1.50;;;;;;;7.52;69.47;100317.93;1722079;83;25463;-60
2022/04/10 01:09:16;;;;;;;4.85;2.08;;;;;;;7.52;69.20;100327.30;1720428;82;27556;-61
2022/04/10 01:11:43;;;;;;;6.47;2.50;;;;;;;7.50;69.14;100330.59;1719140;82;26135;-61
2022/04/10 01:14:12;;;;;;;5.40;2.02;;;;;;;7.47;69.04;100336.19;1709857;83;25681;-61
2022/04/10 01:16:41;;;;;;;4.53;2.17;;;;;;;7.46;69.07;100334.01;1719096;82;26771;-61
2022/04/10 01:19:11;;;;;;;2.95;1.90;;;;;;;7.33;69.42;100331.49;1719267;82;25831;-61
2022/04/10 01:21:46;;;;;;;2.60;1.75;;;;;;;7.32;69.70;100327.59;1719023;82;27472;-61
2022/04/10 01:24:11;;;;;;;3.92;2.27;;;;;;;7.32;69.85;100334.27;1718067;82;25884;-61
2022/04/10 01:26:40;;;;;;;2.98;1.42;;;;;;;7.30;69.82;100344.28;1719283;82;25625;-61
2022/04/10 01:29:10;;;;;;;3.10;1.98;;;;;;;7.31;69.93;100346.81;1719097;83;26031;-61
2022/04/10 01:31:44;;;;;;;2.40;1.67;;;;;;;7.21;69.46;100355.23;1719343;82;26001;-61
2022/04/10 01:34:17;;;;;;;2.15;1.75;;;;;;;7.16;69.41;100362.29;1719302;82;28246;-61
2022/04/10 01:36:45;;;;;;;3.17;1.90;;;;;;;7.22;69.73;100359.61;1719152;82;25660;-60
2022/04/10 01:39:15;;;;;;;4.60;2.05;;;;;;;7.15;69.45;100366.44;1719224;83;25804;-61
2022/04/10 01:41:46;;;;;;;3.85;2.42;;;;;;;7.21;69.49;100365.93;1719325;82;26143;-60
2022/04/10 01:44:14;;;;;;;2.55;1.72;;;;;;;7.19;69.45;100362.05;1719668;82;25735;-61
2022/04/10 01:46:42;;;;;;;4.03;2.30;;;;;;;7.22;69.19;100368.97;1719325;82;26994;-61
2022/04/10 01:49:11;;;;;;;3.15;1.60;;;;;;;7.28;69.38;100367.13;1718774;82;25748;-61
2022/04/10 01:51:38;;;;;;;3.08;1.65;;;;;;;7.26;69.69;100365.05;1699100;84;25705;-61
2022/04/10 01:54:06;;;;;;;1.90;1.60;;;;;;;7.25;69.55;100356.70;1699499;83;26152;-60
2022/04/10 01:56:33;;;;;;;5.28;2.35;;;;;;;7.34;69.55;100355.08;1699079;83;25798;-61
2022/04/10 01:59:02;;;;;;;2.40;1.65;;;;;;;7.43;69.65;100360.17;1699712;83;29058;-60
2022/04/10 02:01:29;;;;;;;2.70;1.82;;;;;;;7.38;69.85;100358.34;1729549;82;25728;-61
2022/04/10 02:03:56;;;;;;;4.78;2.00;;;;;;;7.25;69.08;100354.02;1729595;82;25724;-61
2022/04/10 02:06:23;;;;;;;5.35;2.33;;;;;;;7.25;69.60;100355.36;1729582;82;26211;-61
2022/04/10 02:08:52;;;;;;;3.87;2.37;;;;;;;7.23;69.78;100360.45;1730163;81;25709;-61
2022/04/10 02:11:22;;;;;;;4.62;2.35;;;;;;;7.19;69.99;100353.16;1730950;82;27634;-61
2022/04/10 02:13:50;;;;;;;3.90;2.47;;;;;;;7.17;69.86;100355.97;1731097;82;25656;-60
2022/04/10 02:16:19;;;;;;;6.20;2.58;;;;;;;7.08;69.63;100357.21;1721148;82;25634;-60
2022/04/10 02:18:48;;;;;;;6.20;2.92;;;;;;;7.01;69.90;100353.67;1720725;83;26101;-61
2022/04/10 02:21:16;;;;;;;4.37;2.42;;;;;;;6.99;69.89;100350.77;1708342;83;25824;-60
2022/04/10 02:23:44;;;;;;;7.22;2.60;;;;;;;6.99;70.04;100364.97;1720765;83;27474;-61
2022/04/10 02:26:12;;;;;;;4.33;2.20;;;;;;;6.94;69.98;100367.68;1720913;83;25507;-60
2022/04/10 02:28:40;;;;;;;5.70;2.70;;;;;;;6.91;70.19;100374.59;1720828;83;25682;-61
2022/04/10 02:31:08;;;;;;;7.53;3.47;;;;;;;6.85;70.22;100368.78;1720824;83;26783;-61
2022/04/10 02:33:35;;;;;;;5.20;2.90;;;;;;;6.81;70.37;100363.30;1720820;83;25780;-61
2022/04/10 02:36:04;;;;;;;4.97;2.47;;;;;;;6.86;70.44;100366.94;1720828;82;27481;-60
2022/04/10 02:38:32;;;;;;;3.45;2.60;;;;;;;6.95;70.70;100369.39;1718752;82;25926;-61
2022/04/10 02:40:58;;;;;;;3.22;2.47;;;;;;;6.91;70.62;100370.09;1683542;83;25727;-61
2022/04/10 02:43:26;;;;;;;4.45;2.62;;;;;;;6.86;70.33;100374.46;1720335;82;26894;-60
2022/04/10 02:45:55;;;;;;;3.77;2.40;;;;;;;6.91;70.89;100379.95;1720450;81;25724;-61
2022/04/10 02:48:22;;;;;;;7.03;3.12;;;;;;;6.92;70.89;100384.33;1691293;84;27697;-61
2022/04/10 02:50:49;;;;;;;2.83;2.20;;;;;;;6.88;70.81;100384.56;1684439;83;25782;-61
2022/04/10 02:53:16;;;;;;;6.50;3.00;;;;;;;6.77;71.68;100393.91;1698955;83;25699;-60
2022/04/10 02:55:43;;;;;;;6.83;3.00;;;;;;;6.72;71.59;100399.61;1698870;84;26233;-61
2022/04/10 02:58:10;;;;;;;5.00;2.98;;;;;;;6.69;72.00;100390.52;1696402;84;27260;-61
2022/04/10 03:00:39;;;;;;;8.30;2.98;;;;;;;6.69;72.47;100388.31;1688597;84;27496;-61
2022/04/10 03:03:06;;;;;;;7.25;3.25;;;;;;;6.68;72.38;100390.16;1693561;84;25805;-61
2022/04/10 03:05:33;;;;;;;8.28;3.75;;;;;;;6.72;72.71;100393.43;1694935;83;25477;-60
2022/04/10 03:08:00;;;;;;;6.60;3.98;;;;;;;6.69;72.91;100399.00;1694182;83;26156;-61
2022/04/10 03:10:27;;;;;;;5.80;3.77;;;;;;;6.63;72.60;100400.37;1686943;83;25810;-60
2022/04/10 03:12:55;;;;;;;6.22;3.98;;;;;;;6.63;72.82;100405.71;1663098;85;27010;-61
2022/04/10 03:15:22;;;;;;;6.78;4.30;;;;;;;6.58;72.94;100391.84;1682037;85;25532;-60
2022/04/10 03:17:49;;;;;;;7.17;3.95;;;;;;;6.63;73.25;100384.80;1682444;84;25770;-61
2022/04/10 03:20:15;;;;;;;8.05;4.20;;;;;;;6.72;72.73;100375.55;1681964;83;27125;-61
2022/04/10 03:22:43;;;;;;;10.45;5.20;;;;;;;6.83;73.55;100360.49;1682325;83;25752;-60
2022/04/10 03:25:11;;;;;;;7.17;4.72;;;;;;;6.91;73.06;100380.78;1682080;85;27492;-60
2022/04/10 03:27:38;;;;;;;4.83;3.62;;;;;;;6.92;72.93;100400.38;1681984;84;25675;-60
2022/04/10 03:30:08;;;;;;;7.47;3.90;;;;;;;6.84;72.35;100392.95;1682046;85;25837;-60
2022/04/10 03:32:35;;;;;;;6.15;4.22;;;;;;;6.79;72.85;100370.58;1682350;84;26980;-60
2022/04/10 03:35:03;;;;;;;7.62;4.42;;;;;;;6.80;73.31;100381.64;1682103;84;25965;-60
2022/04/10 03:37:31;;;;;;;4.40;3.98;;;;;;;6.71;73.15;100407.77;1663318;85;27449;-60
2022/04/10 03:39:58;;;;;;;5.95;4.50;;;;;;;6.57;73.03;100403.03;1682004;85;25781;-61
2022/04/10 03:42:25;;;;;;;5.25;4.45;;;;;;;6.61;73.32;100398.76;1682376;85;25564;-60
2022/04/10 03:44:52;;;;;;;11.57;3.92;;;;;;;6.66;73.64;100411.30;1681873;85;26113;-60
2022/04/10 03:47:20;;;;;;;7.33;4.53;;;;;;;6.66;73.56;100420.66;1681897;85;25745;-60
2022/04/10 03:49:46;;;;;;;7.28;3.67;;;;;;;6.62;73.75;100416.03;1662485;85;27480;-60
2022/04/10 03:52:14;;;;;;;5.55;4.53;;;;;;;6.61;73.55;100412.12;1669722;85;26180;-61
2022/04/10 03:54:40;;;;;;;7.47;4.60;;;;;;;6.60;73.47;100405.07;1729666;82;25716;-61
2022/04/10 03:57:07;;;;;;;7.33;4.58;;;;;;;6.66;73.59;100399.27;1729633;82;26112;-60
2022/04/10 03:59:35;;;;;;;5.95;4.12;;;;;;;6.74;73.86;100387.48;1730041;82;26005;-60
2022/04/10 04:02:05;;;;;;;5.78;4.47;;;;;;;6.84;74.00;100396.48;1729530;82;27464;-60
2022/04/10 04:04:32;;;;;;;24.67;9.65;;;;;;;6.90;74.84;100401.84;1729679;82;25885;-60
2022/04/10 04:07:00;;;;;;;28.47;10.55;;;;;;;6.91;74.13;100407.52;1713176;82;25680;-60
2022/04/10 04:09:27;;;;;;;36.80;15.53;;;;;;;6.88;73.42;100424.67;1729801;82;26120;-60
2022/04/10 04:11:54;;;;;;;25.77;14.07;;;;;;;6.83;73.41;100447.39;1729822;82;25505;-60
2022/04/10 04:14:22;;;;;;;14.30;5.92;;;;;;;6.71;73.20;100450.07;1729937;82;27433;-60
2022/04/10 04:30:54;;;;;;;10.18;6.72;;;;;;;6.80;73.03;100423.09;1697777;83;27455;-60
2022/04/10 04:33:22;;;;;;;10.70;6.33;;;;;;;6.86;73.15;100407.05;1706756;84;25735;-60
2022/04/10 04:35:49;;;;;;;9.03;6.47;;;;;;;6.89;72.78;100410.33;1706827;84;25815;-60
2022/04/10 04:38:17;;;;;;;7.45;5.40;;;;;;;6.92;72.98;100422.59;1724144;82;26121;-60
2022/04/10 04:40:45;;;;;;;9.48;5.53;;;;;;;6.90;72.60;100431.25;1728213;83;25736;-60
2022/04/10 04:43:12;;;;;;;11.20;6.60;;;;;;;6.87;72.70;100436.33;1728037;82;27490;-60
2022/04/10 04:45:40;;;;;;;9.33;5.00;;;;;;;6.89;72.61;100430.38;1729669;82;25695;-61
2022/04/10 04:48:08;;;;;;;9.20;6.47;;;;;;;6.97;73.82;100420.91;1729465;82;25498;-60
2022/04/10 04:50:36;;;;;;;8.45;5.10;;;;;;;6.97;73.27;100426.25;1729738;82;26756;-61
2022/04/10 04:53:03;;;;;;;9.68;5.37;;;;;;;7.04;73.45;100427.45;1704517;84;25732;-60
2022/04/10 04:55:31;;;;;;;11.22;4.90;;;;;;;7.07;73.19;100427.23;1704449;84;27495;-61
2022/04/10 04:57:59;;;;;;;7.45;4.90;;;;;;;7.04;73.04;100428.80;1704524;84;25836;-60
2022/04/10 05:00:27;;;;;;;8.73;4.42;;;;;;;7.04;72.84;100419.44;1737767;82;25674;-60
2022/04/10 05:02:55;;;;;;;10.85;5.33;;;;;;;7.11;73.34;100407.30;1691723;83;26082;-60
2022/04/10 05:05:25;;;;;;;8.20;5.20;;;;;;;7.14;73.31;100406.20;1729580;82;25505;-60
2022/04/10 05:07:53;;;;;;;6.42;4.70;;;;;;;7.15;73.03;100418.59;1729632;82;27493;-60
2022/04/10 05:10:20;;;;;;;6.35;5.08;;;;;;;7.11;72.82;100442.08;1729439;82;27242;-60
2022/04/10 05:12:47;;;;;;;9.50;5.80;;;;;;;7.00;73.24;100444.23;1729796;81;25691;-60
2022/04/10 05:15:16;;;;;;;10.93;5.42;;;;;;;6.88;72.99;100454.08;1729691;82;26283;-61
2022/04/10 05:17:44;;;;;;;7.58;5.12;;;;;;;6.84;72.96;100462.46;1729828;81;25752;-60
2022/04/10 05:20:12;;;;;;;6.90;5.10;;;;;;;6.85;73.21;100465.04;1729939;82;27587;-60
2022/04/10 05:22:41;;;;;;;6.72;4.75;;;;;;;6.86;73.03;100466.71;1730113;81;25924;-61
2022/04/10 05:25:09;;;;;;;8.58;5.62;;;;;;;6.85;73.13;100466.84;1729540;82;25774;-60
2022/04/10 05:27:36;;;;;;;7.50;4.75;;;;;;;6.78;72.90;100455.77;1729482;81;26402;-61
2022/04/10 05:30:06;;;;;;;9.95;6.20;;;;;;;6.81;73.07;100451.53;1729741;81;25521;-60
2022/04/10 05:32:33;;;;;;;7.87;5.47;;;;;;;6.87;73.23;100464.41;1729433;82;27475;-60
2022/04/10 05:35:00;;;;;;;9.23;5.22;;;;;;;6.93;73.20;100461.74;1729391;82;25861;-61
2022/04/10 05:37:27;;;;;;;8.90;5.67;;;;;;;6.96;73.00;100464.66;1729560;82;25723;-60
2022/04/10 05:39:56;;;;;;;11.30;7.67;;;;;;;6.97;73.21;100454.33;1729531;81;26158;-60
2022/04/10 05:42:23;;;;;;;8.40;5.33;;;;;;;7.02;72.89;100452.16;1729703;82;25739;-60
2022/04/10 05:44:51;;;;;;;7.75;5.62;;;;;;;7.06;72.97;100450.93;1723307;82;27447;-61
2022/04/10 05:47:19;;;;;;;7.58;5.10;;;;;;;7.05;72.58;100449.22;1719976;82;25463;-61
2022/04/10 05:49:46;;;;;;;8.40;5.22;;;;;;;7.10;72.51;100459.09;1720052;82;25744;-60
2022/04/10 05:52:13;;;;;;;9.35;5.40;;;;;;;7.14;72.58;100461.03;1727714;82;26078;-61
2022/04/10 05:54:40;;;;;;;9.30;6.00;;;;;;;7.18;72.38;100463.34;1704217;84;25763;-60
2022/04/10 05:57:08;;;;;;;10.78;5.70;;;;;;;7.17;72.07;100458.13;1704326;84;27572;-60
2022/04/10 05:59:35;;;;;;;9.10;6.20;;;;;;;7.15;71.96;100458.23;1704329;84;27251;-60
2022/04/10 06:02:05;;;;;;;8.63;5.90;;;;;;;7.16;72.08;100453.75;1692877;84;25511;-61
2022/04/10 06:04:32;;;;;;;7.75;6.20;;;;;;;7.19;72.31;100451.67;1689298;84;26054;-60
2022/04/10 06:06:59;;;;;;;7.65;4.97;;;;;;;7.27;72.36;100460.41;1689452;84;25716;-61
2022/04/10 06:09:30;;;;;;;8.98;5.67;;;;;;;7.34;72.32;100451.41;1690941;83;26964;-61
2022/04/10 06:11:57;;;;;;;10.05;5.45;;;;;;;7.41;72.08;100459.80;1695979;84;25792;-60
2022/04/10 06:14:26;;;;;;;9.60;5.67;;;;;;;7.46;72.14;100457.59;1696364;84;25752;-61
2022/04/10 06:16:54;;;;;;;8.75;5.35;;;;;;;7.48;72.03;100456.99;1696165;84;26123;-60
2022/04/10 06:19:22;;;;;;;8.98;5.60;;;;;;;7.43;71.77;100457.36;1695799;84;25850;-60
2022/04/10 06:21:50;;;;;;;10.00;5.75;;;;;;;7.41;71.97;100447.26;1695993;84;27483;-60
2022/04/10 06:24:17;;;;;;;8.48;5.85;;;;;;;7.42;71.88;100448.13;1696120;84;25815;-60
2022/04/10 06:26:48;;;;;;;12.70;5.97;;;;;;;7.36;71.78;100458.83;1696031;84;25815;-61
2022/04/10 06:29:16;;;;;;;9.45;5.87;;;;;;;7.32;71.78;100462.24;1696205;83;26144;-61
2022/04/10 06:31:45;;;;;;;13.40;6.55;;;;;;;7.36;72.00;100462.84;1696395;84;25830;-61
2022/04/10 06:34:13;;;;;;;12.07;7.37;;;;;;;7.38;71.56;100464.05;1696681;84;27658;-60
2022/04/10 06:36:41;;;;;;;6.92;5.03;;;;;;;7.38;71.90;100467.59;1696231;83;25695;-60
2022/04/10 06:39:09;;;;;;;9.78;5.80;;;;;;;7.43;72.41;100460.03;1696536;83;25727;-61
2022/04/10 06:41:36;;;;;;;23.95;13.75;;;;;;;7.38;72.28;100452.88;1696239;84;26132;-60
2022/04/10 06:44:05;;;;;;;11.80;7.85;;;;;;;7.37;72.30;100445.82;1696776;82;25791;-61
2022/04/10 06:46:35;;;;;;;7.60;5.35;;;;;;;7.36;72.41;100444.11;1698136;82;27503;-61
2022/04/10 06:49:06;;;;;;;10.38;5.42;;;;;;;7.34;72.45;100440.70;1693263;83;25881;-61
2022/04/10 06:51:34;;;;;;;8.30;5.08;;;;;;;7.32;72.43;100443.98;1646400;86;25759;-61
2022/04/10 06:54:02;;;;;;;8.20;5.58;;;;;;;7.37;72.53;100433.78;1682082;84;26088;-60
2022/04/10 06:56:29;;;;;;;11.78;5.80;;;;;;;7.32;72.50;100443.52;1696333;84;25805;-61
2022/04/10 06:58:56;;;;;;;9.00;5.72;;;;;;;7.29;72.58;100445.09;1680661;84;27619;-60
2022/04/10 07:01:23;;;;;;;9.25;6.33;;;;;;;7.27;72.64;100444.85;1703409;83;25738;-61
2022/04/10 07:03:51;;;;;;;8.88;5.10;;;;;;;7.26;72.67;100451.17;1705427;84;26074;-60
2022/04/10 07:06:19;;;;;;;7.65;5.42;;;;;;;7.27;73.17;100450.20;1695961;84;26176;-60
2022/04/10 07:08:47;;;;;;;11.03;5.97;;;;;;;7.28;72.82;100463.45;1696329;84;25684;-59
2022/04/10 07:11:14;;;;;;;6.75;5.17;;;;;;;7.27;72.84;100463.58;1697598;84;27502;-60
2022/04/10 07:13:42;;;;;;;13.40;6.08;;;;;;;7.28;72.90;100474.16;1699057;83;26377;-60
2022/04/10 07:16:09;;;;;;;13.43;5.92;;;;;;;7.24;73.04;100494.59;1699048;84;25797;-60
2022/04/10 07:18:36;;;;;;;8.88;5.33;;;;;;;7.20;73.11;100506.89;1698947;84;27083;-60
2022/04/10 07:21:05;;;;;;;8.15;4.47;;;;;;;7.17;73.00;100502.27;1699327;83;26159;-60
2022/04/10 07:23:42;;;;;;;10.60;5.28;;;;;;;7.20;72.95;100501.53;1699018;84;28586;-60
2022/04/10 07:26:13;;;;;;;7.85;5.17;;;;;;;7.24;73.03;100502.14;1698797;83;26624;-60
2022/04/10 07:28:42;;;;;;;6.78;4.37;;;;;;;7.31;72.96;100484.63;1694442;83;26591;-60
2022/04/10 07:31:10;;;;;;;7.15;4.12;;;;;;;7.33;72.45;100484.48;1698953;84;26366;-61
2022/04/10 07:33:38;;;;;;;6.05;4.35;;;;;;;7.30;72.50;100490.11;1718387;83;25486;-61
2022/04/10 07:36:16;;;;;;;7.95;4.70;;;;;;;7.22;72.25;100495.22;1700244;83;27607;-61
2022/04/10 07:38:42;;;;;;;5.87;4.47;;;;;;;7.12;72.85;100500.42;1699032;83;25787;-60
2022/04/10 07:41:11;;;;;;;8.18;4.42;;;;;;;7.07;73.36;100510.64;1699228;82;25731;-60
2022/04/10 07:43:39;;;;;;;8.58;4.58;;;;;;;7.04;73.55;100507.23;1699231;83;26943;-60
2022/04/10 07:48:58;;;;;;;6.42;4.22;;;;;;;6.89;73.52;100495.90;1698803;83;26867;-61
2022/04/10 07:51:28;;;;;;;9.45;4.60;;;;;;;6.84;73.47;100501.23;1716715;83;25506;-61
2022/04/10 07:53:57;;;;;;;6.55;4.00;;;;;;;6.80;73.54;100515.83;1711999;83;25736;-61
2022/04/10 08:00:11;;;;;;;6.50;3.50;;;;;;;6.72;72.74;100523.09;1721467;81;25844;-61
2022/04/10 08:02:50;;;;;;;8.58;3.42;;;;;;;6.69;72.00;100529.99;1727559;83;27333;-62
2022/04/10 08:05:22;;;;;;;5.87;3.67;;;;;;;6.65;72.44;100532.55;1724537;83;25822;-61
2022/04/10 08:07:56;;;;;;;7.20;3.33;;;;;;;6.64;72.77;100528.17;1726534;83;25703;-61
2022/04/10 08:10:24;;;;;;;6.00;3.12;;;;;;;6.66;72.72;100542.28;1726934;82;25731;-60
2022/04/10 08:12:51;;;;;;;4.95;3.60;;;;;;;6.68;72.54;100571.92;1718727;83;25754;-61
2022/04/10 08:15:19;;;;;;;5.72;3.52;;;;;;;6.74;72.46;100576.80;1718403;82;27473;-62
2022/04/10 08:17:45;;;;;;;5.85;3.47;;;;;;;6.81;72.35;100570.52;1718495;83;25715;-61
2022/04/10 08:20:12;;;;;;;4.75;2.98;;;;;;;6.77;71.96;100570.86;1718566;83;25663;-61
2022/04/10 08:22:40;;;;;;;7.15;3.58;;;;;;;6.76;72.30;100567.81;1718427;82;26148;-61
2022/04/10 08:25:10;;;;;;;6.15;3.40;;;;;;;6.78;72.80;100557.36;1718905;82;25747;-61
2022/04/10 08:27:37;;;;;;;5.40;2.72;;;;;;;6.83;72.96;100567.24;1718618;83;27462;-60
2022/04/10 08:30:10;;;;;;;7.55;3.25;;;;;;;6.82;72.46;100557.52;1718806;83;25784;-60
2022/04/10 08:32:39;;;;;;;26.00;15.38;;;;;;;6.80;73.10;100558.11;1718525;83;25700;-60
2022/04/10 08:35:09;;;;;;;5.20;3.70;;;;;;;6.82;73.50;100558.84;1718384;83;26227;-61
2022/04/10 08:37:36;;;;;;;5.92;3.00;;;;;;;6.83;72.90;100567.71;1718475;83;25859;-60
2022/04/10 08:40:05;;;;;;;3.87;3.22;;;;;;;6.79;72.99;100559.57;1718696;83;27594;-60
2022/04/10 08:42:33;;;;;;;7.70;3.50;;;;;;;6.81;73.34;100554.97;1718292;83;25802;-60
2022/04/10 08:45:00;;;;;;;5.67;2.77;;;;;;;6.76;72.47;100562.00;1719925;83;25860;-60
2022/04/10 08:47:29;;;;;;;8.03;3.25;;;;;;;6.71;73.13;100569.50;1720163;82;27002;-60
2022/04/10 08:50:00;;;;;;;4.30;2.92;;;;;;;6.67;73.03;100580.08;1715241;83;26412;-61
2022/04/10 08:52:27;;;;;;;5.83;3.30;;;;;;;6.63;72.90;100574.58;1689539;84;27454;-61
2022/04/10 08:54:54;;;;;;;6.55;3.30;;;;;;;6.72;73.22;100566.70;1705174;83;25823;-61
2022/04/10 08:57:20;;;;;;;4.78;3.47;;;;;;;6.83;73.43;100563.23;1737122;82;25746;-61
2022/04/10 08:59:47;;;;;;;5.55;2.92;;;;;;;6.87;73.77;100564.69;1718737;83;26289;-61
2022/04/10 09:02:14;;;;;;;5.33;3.17;;;;;;;6.80;73.20;100567.97;1718629;83;25691;-61
2022/04/10 09:04:41;;;;;;;6.62;2.90;;;;;;;6.79;73.62;100566.25;1713324;83;29630;-61
2022/04/10 09:07:10;;;;;;;4.55;2.58;;;;;;;6.84;74.01;100568.08;1703200;83;25873;-61
2022/04/10 09:09:43;;;;;;;4.33;3.27;;;;;;;6.93;74.08;100555.34;1716931;82;25764;-61
2022/04/10 09:12:10;;;;;;;3.37;2.83;;;;;;;6.92;73.11;100558.98;1702111;83;27110;-61
2022/04/10 09:14:41;;;;;;;5.00;3.12;;;;;;;6.95;73.24;100566.78;1727866;83;25771;-62
2022/04/10 09:17:22;;;;;;;4.62;3.10;;;;;;;6.87;73.26;100574.55;1721424;83;28130;-61
2022/04/10 09:19:52;;;;;;;5.10;3.37;;;;;;;6.84;73.81;100578.78;1693801;83;25735;-61
2022/04/10 09:22:37;;;;;;;5.58;3.33;;;;;;;6.85;73.81;100579.15;1728002;83;25644;-61
2022/04/10 09:25:16;;;;;;;5.10;2.95;;;;;;;6.89;73.90;100578.80;1728366;82;26783;-61
2022/04/10 09:27:51;;;;;;;5.53;2.92;;;;;;;7.02;73.55;100571.18;1699246;82;28667;-61
2022/04/10 09:30:20;;;;;;;5.70;2.90;;;;;;;7.08;73.33;100568.52;1698934;83;27316;-61
2022/04/10 09:32:53;;;;;;;4.45;2.95;;;;;;;7.11;73.46;100569.14;1698740;83;26337;-61
2022/04/10 09:35:23;;;;;;;6.53;2.50;;;;;;;7.20;73.45;100572.91;1699163;83;25742;-61
2022/04/10 09:37:57;;;;;;;5.75;2.50;;;;;;;7.22;72.57;100566.95;1720032;81;26094;-61
2022/04/10 09:40:29;;;;;;;3.52;2.25;;;;;;;7.25;72.78;100559.17;1728282;83;25776;-60
2022/04/10 09:43:06;;;;;;;40.25;24.60;;;;;;;7.35;72.81;100566.84;1727928;83;27467;-60
2022/04/10 09:45:41;;;;;;;11.70;5.78;;;;;;;7.36;71.88;100565.38;1729562;82;25720;-59
2022/04/10 09:48:33;;;;;;;8.93;4.10;;;;;;;7.27;71.54;100570.61;1729396;82;25744;-62
2022/04/10 09:51:03;;;;;;;4.70;2.85;;;;;;;7.22;72.24;100569.63;1729775;82;26834;-61
2022/04/10 09:53:32;;;;;;;4.12;2.58;;;;;;;7.26;73.04;100558.20;1729493;82;25819;-61
2022/04/10 09:56:03;;;;;;;6.55;3.22;;;;;;;7.22;73.02;100563.44;1729715;82;27676;-60
2022/04/10 09:58:31;;;;;;;5.85;3.40;;;;;;;7.11;73.30;100566.46;1727424;81;25726;-60
2022/04/10 10:00:59;;;;;;;4.90;3.37;;;;;;;7.03;73.21;100575.06;1728421;82;25722;-60
2022/04/10 10:03:29;;;;;;;4.87;3.20;;;;;;;7.02;73.77;100576.53;1728030;83;26135;-60
2022/04/10 10:05:57;;;;;;;2.83;2.55;;;;;;;6.99;73.53;100578.09;1728198;82;25806;-60
2022/04/10 10:08:27;;;;;;;5.67;3.08;;;;;;;7.01;74.09;100572.15;1728118;83;27383;-60
2022/04/10 10:10:59;;;;;;;4.22;3.00;;;;;;;6.98;74.16;100569.70;1727986;82;25782;-61
2022/04/10 10:13:27;;;;;;;3.55;2.50;;;;;;;7.00;74.17;100559.74;1727269;83;25656;-61
2022/04/10 10:15:55;;;;;;;8.43;5.92;;;;;;;7.12;73.89;100562.82;1728438;83;26157;-60
2022/04/10 10:18:24;;;;;;;21.90;13.03;;;;;;;7.03;73.71;100563.03;1727018;81;26371;-61
2022/04/10 10:20:53;;;;;;;3.65;2.60;;;;;;;7.07;74.04;100557.45;1728448;83;27437;-61
2022/04/10 10:23:26;;;;;;;5.47;2.65;;;;;;;7.16;73.28;100564.27;1727887;82;25723;-61
2022/04/10 10:26:16;;;;;;;3.42;2.37;;;;;;;7.18;73.98;100557.45;1728459;81;25759;-61
2022/04/10 10:29:16;;;;;;;4.55;2.02;;;;;;;7.25;74.31;100549.80;1726943;82;26232;-60
2022/04/10 10:32:03;;;;;;;3.02;1.62;;;;;;;7.33;73.95;100550.92;1726983;81;25509;-61
2022/04/10 10:34:32;;;;;;;3.08;1.90;;;;;;;7.47;72.49;100548.50;1728205;82;27466;-61
2022/04/10 10:37:03;;;;;;;4.08;2.70;;;;;;;7.40;71.81;100548.59;1727695;83;25724;-61
2022/04/10 10:39:33;;;;;;;3.12;1.90;;;;;;;7.29;72.27;100548.11;1728003;82;25776;-61
2022/04/10 10:42:13;;;;;;;3.60;2.47;;;;;;;7.24;72.69;100544.95;1728252;82;26256;-61
2022/04/10 10:44:44;;;;;;;5.37;2.27;;;;;;;7.18;71.82;100546.28;1728724;82;25776;-60
2022/04/10 10:47:22;;;;;;;3.42;2.35;;;;;;;7.15;72.53;100554.53;1707517;83;27586;-60
2022/04/10 10:49:51;;;;;;;2.72;1.70;;;;;;;7.07;72.96;100549.43;1728291;82;25815;-60
2022/04/10 10:52:19;;;;;;;2.02;1.70;;;;;;;7.06;72.27;100551.23;1729814;82;25810;-60
2022/04/10 10:54:58;;;;;;;3.37;2.15;;;;;;;6.98;72.11;100556.33;1729577;82;26061;-60
2022/04/10 10:57:42;;;;;;;2.80;1.85;;;;;;;6.92;72.55;100552.30;1729481;81;25511;-61
2022/04/10 11:00:22;;;;;;;3.12;2.02;;;;;;;6.83;71.50;100555.20;1720065;83;27486;-60
2022/04/10 11:02:52;;;;;;;3.50;1.90;;;;;;;6.75;71.94;100557.62;1718695;83;25763;-60
2022/04/10 11:05:29;;;;;;;3.15;1.72;;;;;;;6.70;72.13;100560.64;1718483;83;26493;-60
2022/04/10 11:08:07;;;;;;;4.45;2.12;;;;;;;6.66;71.57;100565.00;1718711;83;26140;-61
2022/04/10 11:10:53;;;;;;;6.72;2.10;;;;;;;6.61;71.92;100567.15;1718358;83;25825;-58
2022/04/10 11:13:20;;;;;;;3.52;1.47;;;;;;;6.56;72.19;100560.81;1718263;83;27366;-60
2022/04/10 11:15:55;;;;;;;2.90;2.08;;;;;;;6.53;71.99;100563.23;1718682;83;25698;-60
2022/04/10 11:18:32;;;;;;;3.17;1.92;;;;;;;6.47;72.05;100560.16;1725570;83;25956;-61
2022/04/10 11:24:43;;;;;;;3.70;2.00;;;;;;;6.48;72.23;100560.07;1717595;82;25723;-60
2022/04/10 11:27:13;;;;;;;3.75;2.35;;;;;;;6.53;72.66;100561.06;1727944;82;27443;-60
2022/04/10 11:30:00;;;;;;;2.85;2.05;;;;;;;6.52;73.00;100562.86;1729579;82;25833;-60
2022/04/10 11:32:40;;;;;;;4.50;2.77;;;;;;;6.55;73.47;100568.45;1728039;81;25831;-60
2022/04/10 11:35:20;;;;;;;3.95;2.55;;;;;;;6.51;73.38;100573.68;1727901;83;26073;-61
2022/04/10 11:37:51;;;;;;;3.37;2.02;;;;;;;6.52;74.06;100582.91;1728428;82;25485;-60
2022/04/10 11:40:30;;;;;;;3.87;2.15;;;;;;;6.56;73.29;100576.84;1726714;81;28128;-60
2022/04/10 11:43:02;;;;;;;2.75;2.33;;;;;;;6.55;72.91;100592.05;1728097;83;25826;-60
2022/04/10 11:45:31;;;;;;;3.98;2.58;;;;;;;6.51;73.30;100593.23;1729682;82;25497;-61
2022/04/10 11:48:00;;;;;;;6.40;2.20;;;;;;;6.53;73.48;100590.46;1729928;82;26709;-60
2022/04/10 11:50:28;;;;;;;9.78;3.58;;;;;;;6.44;73.32;100595.99;1729529;82;25838;-60
2022/04/10 11:53:11;;;;;;;11.00;3.20;;;;;;;6.36;73.94;100609.07;1729985;82;27645;-61
2022/04/10 11:55:47;;;;;;;4.22;2.00;;;;;;;6.32;73.57;100611.11;1729503;82;25959;-60
2022/04/10 11:58:25;;;;;;;4.37;2.33;;;;;;;6.20;73.96;100616.01;1726052;82;25840;-60
2022/04/10 12:01:01;;;;;;;4.90;2.58;;;;;;;6.13;74.40;100620.97;1718378;83;26117;-60
2022/04/10 12:03:31;;;;;;;3.75;2.30;;;;;;;6.04;74.23;100622.47;1718836;83;25797;-60
2022/04/10 12:05:58;;;;;;;3.77;2.67;;;;;;;6.09;74.63;100626.14;1718621;83;27645;-60
2022/04/10 12:08:25;;;;;;;5.65;2.33;;;;;;;6.08;74.27;100616.42;1718351;83;25710;-60
2022/04/10 12:11:01;;;;;;;3.55;2.20;;;;;;;6.06;74.74;100615.67;1718318;83;25597;-60